بكين, Beijing

05:01 AM CST on سبتهبر 05, 2015 (GMT +0800)
Beijing Capital | | Change Station
CLOSE
Current Station
Airport
Location: Beijing,
Elevation: 115 ft
Nearby Weather Stations

Elev 115 ft 40.07 °N, 116.59 °E | Updated 31 minutes ago

Light Rain
مطر خفيف
64 °F
Feels Like 64 °F
N
7
ريح متغير ريح from ESE

هذا اليوم
High -- | Low -- °F
--% Chance of Precip.
Yesterday
High -- | Low -- °F
Precip. -- في
5:44 AM 6:40 PM
الأحدب الأخير, 56% visible
الضغط 29.80 في
وضوح الرؤية 3.7 أميال
سحابات غيوم متفرقة 600 ft
غائم 4000 ft
نقطة الندى 64 °F
الرطوبة 100%
Rainfall 0.00 في
عمق الثلج Not available.
الأشعة فوق البنفسجية 0 out of 12
Pollen Not available.
جودة الهواء Not available.
Flu Activity Not available.
METAR ZBAA 042030Z 11003MPS 070V140 6000 -RA SCT006 OVC040 18/18 Q1009 NOSIG
الضغط 29.80 في
وضوح الرؤية 3.7 أميال
سحابات غيوم متفرقة 600 ft
غائم 4000 ft
نقطة الندى 64 °F
الرطوبة 100%
Rainfall 0.00 في
عمق الثلج Not available.
الأشعة فوق البنفسجية 0 out of 12
Pollen Not available.
جودة الهواء Not available.
Flu Activity Not available.
METAR ZBAA 042030Z 11003MPS 070V140 6000 -RA SCT006 OVC040 18/18 Q1009 NOSIG

10-Day Weather Forecast

×

Almanac

علم الفلك

Sep. 05, 2015 Rise Set
Actual Time
Civil Twilight
Nautical Twilight
Astronomical Twilight
قمر
Length Of Visible Light
طول الیوم
Tomorrow will be .
, % of the Moon is Illuminated

Today's Extremes

Country Highs Country Lows

Community

WunderPhotos

Upload Photos

1,852,290 photos uploaded!

WunderBlogs® & News

Nearby

جودة الهواء

  جودة الهواء AQ Index Pollutant
Not available.

عمق الثلج

Station Depth Elevation

Earthquake Activity

City Distance Mag. Time & Date
Minimum magnitude displayed is 2.5.

Coastal Water Temperatures

مكان درجات الحرارة

Stations

Nearby Weather Stations

Station Location الحرارة رياح باردة نقطة الندى الرطوبة ريح Precip. Elev تحديث Type